KGRK - Killeen-Ft Hood Rgnl, TX, US

Issued at 1600 UTC 18 Oct 2019
Updated at 2317 UTC 18 Oct 2019
Potential Impact None Slight Moderate High
Time2255Z 19/00Z 19/01Z 19/02Z 19/03Z 19/04Z 19/05Z 19/06Z 19/07Z 19/08Z 19/09Z 19/10Z 19/11Z 19/12Z>>
Type OBS PRVL PRVL PRVL PRVL PRVL PRVL PRVL PRVL PRVL PRVL PRVL PRVL PRVL
VIS 7 >6 >6 >6 >6 >6 >6 >6 >6 >6 >6 >6 >6 >6
CIG -- -- -- -- -- -- -- -- -- -- -- -- 15 15
Cover CLR SKC SKC SKC SKC SKC FEW FEW FEW FEW FEW FEW BKN BKN
FltCat VFR VFR VFR VFR VFR VFR VFR VFR VFR VFR VFR VFR MVFR MVFR
WX -- -- -- -- -- -- -- -- -- -- -- -- -- --
WDir 150 150 150 150 150 150 180 180 180 180 180 180 220 220
WSpd 6 9 9 9 9 9 9 9 9 9 9 9 10 10
WGst -- -- -- -- -- -- -- -- -- -- -- -- 15 15
Raw TAF
TAF KGRK 181600Z 1816/1922 15009KT 9999 SKC QNH2985INS
  BECMG 1905/1906 18009KT 9999 FEW080 QNH2976INS
  BECMG 1911/1912 22010G15KT 9999 SCT006 BKN015 BKN080 QNH2976INS
  BECMG 1914/1915 25010G15KT 9999 FEW070 FEW100 QNH2972INS
  BECMG 1921/1922 18006KT 9999 FEW060 QNH2971INS TX23/1822Z TN16/1910Z


Raw METAR
KGRK 182255Z 15006KT 7SM CLR 26/10 A2977 RMK AO2A SLPNO WND DATA ESTMD ALSTG ESTMD
KGRK 182225Z 17006KT 7SM CLR 26/10 A2977 RMK AO2A WND DATA ESTMD ALSTG ESTMD
KGRK 182158Z 17006KT 7SM CLR 26/10 A2975 RMK AO2A SLPNO WND DATA ESTMD ALSTG ESTMD
KGRK 182136Z 16006KT 7SM CLR 26/11 A2976 RMK AO2A WND DATA ESTMD ALSTG ESTMD
KGRK 182057Z 16006KT 7SM CLR 26/11 A2975 RMK AO2A SLPNO WND DATA ESTMD ALSTG ESTMD
KGRK 182035Z 16006KT 7SM CLR 27/12 A2977 RMK AO2A WND DATA ESTMD ALSTG ESTMD

METAR Board
For situational awareness. Not to be used for flight planning purposes.